»·PEaware :: N48427 KSAN-KSBA

N48427 :: KSAN-KSBA

FLIGHT INFORMATION

Flight Status: Arrived
Operator: Privately registered:
United States
More flights under this callsign
Pilot: Brian D. (22974)
Aircraft: Unknown
(P28U)
More flights by this aircraft type
Origin: KSAN San Diego Intl-Lindbergh
United States
Destination: KSBA Santa Barbara Mun
United States
More flights between these airports :: More routes between these airports
Route: +
File this flight plan on PilotEdge
Remarks: SANP35
Altitude:
(Current/Filed)
5,500ft
Speed:
(Current/Filed)
120kts
Departed: 10-Jan-20 11:01 PM
Arrived: 11-Jan-20 12:49 AM
Distance/Time
Traveled:
167nm/1:48
Distance/Time
To Go:
Arrived

Flight Plot

Page will automatically refresh every two minutes.

Flight plan parsing failed; only flown route is shown


Map Options




Map Legend


Flown Route
Filed Route
Departure Airport
Arrival Airport
Navaid (VOR, NDB)
Fix

Horizontal Profiles

Position Reports

Time Latitude Longitude Heading Altitude Ground
Speed
10-Jan-20 22:59 32.944440 -117.278845 322 5318ft 101kts
10-Jan-20 23:00 32.969517 -117.289994 348 5564ft 98kts
10-Jan-20 23:01 32.994846 -117.302643 340 5819ft 99kts
10-Jan-20 23:02 33.016932 -117.312521 347 6022ft 98kts
10-Jan-20 23:03 33.045378 -117.322278 343 6306ft 96kts
10-Jan-20 23:04 33.069874 -117.336138 334 6512ft 100kts
10-Jan-20 23:05 33.096824 -117.348575 348 6511ft 107kts
10-Jan-20 23:06 33.121847 -117.357724 343 6480ft 109kts
10-Jan-20 23:07 33.145327 -117.367690 343 6475ft 109kts
10-Jan-20 23:08 33.177904 -117.381179 343 6476ft 109kts
10-Jan-20 23:09 33.207544 -117.393178 343 6477ft 109kts
10-Jan-20 23:10 33.236381 -117.404643 342 6478ft 109kts
10-Jan-20 23:11 33.261967 -117.423102 316 6478ft 111kts
10-Jan-20 23:12 33.283511 -117.450381 316 6478ft 112kts
10-Jan-20 23:13 33.304809 -117.477418 316 6477ft 113kts
10-Jan-20 23:14 33.324523 -117.502608 316 6476ft 112kts
10-Jan-20 23:15 33.345984 -117.530216 316 6475ft 112kts
10-Jan-20 23:16 33.366826 -117.557192 316 6474ft 112kts
10-Jan-20 23:17 33.387784 -117.584471 316 6473ft 112kts
10-Jan-20 23:18 33.406234 -117.608620 315 6472ft 112kts
10-Jan-20 23:19 33.425777 -117.634589 315 6472ft 113kts
10-Jan-20 23:20 33.442907 -117.657841 315 6472ft 113kts
10-Jan-20 23:21 33.460014 -117.681680 315 6472ft 114kts
10-Jan-20 23:22 33.476843 -117.705493 320 6472ft 114kts
10-Jan-20 23:23 33.493942 -117.726072 319 6472ft 114kts
10-Jan-20 23:24 33.513286 -117.749891 319 6472ft 115kts
10-Jan-20 23:25 33.528921 -117.769387 319 6472ft 117kts
10-Jan-20 23:26 33.544985 -117.789563 319 6472ft 118kts
10-Jan-20 23:27 33.558431 -117.806558 319 6472ft 118kts
10-Jan-20 23:28 33.566824 -117.817211 319 6472ft 118kts
10-Jan-20 23:29 33.578513 -117.832098 319 6472ft 119kts
10-Jan-20 23:30 33.591845 -117.849129 319 6472ft 119kts
10-Jan-20 23:31 33.602962 -117.863317 320 6471ft 117kts
10-Jan-20 23:32 33.619139 -117.881358 323 6471ft 115kts
10-Jan-20 23:33 33.639820 -117.904097 323 6471ft 114kts
10-Jan-20 23:34 33.655010 -117.920711 323 6471ft 114kts
10-Jan-20 23:35 33.676737 -117.944327 322 6471ft 113kts
10-Jan-20 23:36 33.698107 -117.967358 322 6471ft 112kts
10-Jan-20 23:37 33.715760 -117.986221 322 6471ft 111kts
10-Jan-20 23:38 33.724084 -117.995063 322 6471ft 111kts
10-Jan-20 23:39 33.735245 -118.006861 322 6471ft 111kts
10-Jan-20 23:40 33.750507 -118.022888 322 6471ft 111kts
10-Jan-20 23:41 33.769278 -118.042420 322 6471ft 110kts
10-Jan-20 23:42 33.782166 -118.066577 290 6471ft 114kts
10-Jan-20 23:43 33.789734 -118.096912 291 6471ft 113kts
10-Jan-20 23:44 33.797273 -118.127473 291 6471ft 113kts
10-Jan-20 23:45 33.802194 -118.147545 291 6471ft 113kts
10-Jan-20 23:46 33.805478 -118.161001 291 6471ft 113kts
10-Jan-20 23:47 33.810915 -118.183372 291 6471ft 113kts
10-Jan-20 23:48 33.815979 -118.204326 291 6471ft 114kts
10-Jan-20 23:49 33.821502 -118.227286 291 6471ft 113kts
10-Jan-20 23:50 33.826431 -118.248071 291 6482ft 113kts
10-Jan-20 23:51 33.831093 -118.268074 290 6485ft 114kts
10-Jan-20 23:52 33.835099 -118.285244 290 6486ft 114kts
10-Jan-20 23:53 33.842153 -118.315447 290 6488ft 113kts
10-Jan-20 23:54 33.849691 -118.347468 290 6488ft 113kts
10-Jan-20 23:55 33.857472 -118.370301 316 6488ft 109kts
10-Jan-20 23:56 33.866129 -118.379417 321 6487ft 108kts
10-Jan-20 23:57 33.875955 -118.389177 321 6486ft 108kts
10-Jan-20 23:58 33.889005 -118.402018 321 6486ft 109kts
10-Jan-20 23:59 33.900427 -118.413164 321 6485ft 109kts
11-Jan-20 00:00 33.908727 -118.421210 321 6485ft 109kts
11-Jan-20 00:01 33.922020 -118.434003 321 6484ft 109kts
11-Jan-20 00:02 33.935119 -118.446532 321 6483ft 109kts
11-Jan-20 00:03 33.954018 -118.464615 321 6481ft 107kts
11-Jan-20 00:04 33.972717 -118.482646 321 6480ft 107kts
11-Jan-20 00:05 33.993107 -118.502650 321 6479ft 107kts
11-Jan-20 00:06 34.007765 -118.517372 321 6479ft 107kts
11-Jan-20 00:07 34.023855 -118.533977 321 6479ft 107kts
11-Jan-20 00:08 34.041050 -118.552367 320 6479ft 107kts
11-Jan-20 00:09 34.058683 -118.572026 320 6480ft 108kts
11-Jan-20 00:10 34.075153 -118.591031 320 6481ft 109kts
11-Jan-20 00:11 34.092069 -118.610965 320 6482ft 110kts
11-Jan-20 00:12 34.105443 -118.626706 320 6486ft 111kts
11-Jan-20 00:14 34.111710 -118.634063 320 6486ft 112kts
11-Jan-20 00:15 34.118211 -118.658404 261 6485ft 124kts
11-Jan-20 00:16 34.115960 -118.668899 260 6488ft 124kts
11-Jan-20 00:17 34.111124 -118.690018 260 6490ft 123kts
11-Jan-20 00:18 34.102824 -118.725835 260 6493ft 125kts
11-Jan-20 00:19 34.097331 -118.771290 281 6497ft 119kts
11-Jan-20 00:20 34.100672 -118.815346 281 6503ft 131kts
11-Jan-20 00:21 34.105076 -118.866629 281 6500ft 139kts
11-Jan-20 00:22 34.109865 -118.920599 281 6499ft 139kts
11-Jan-20 00:23 34.114358 -118.971688 281 6499ft 139kts
11-Jan-20 00:24 34.118492 -119.019973 281 6499ft 139kts
11-Jan-20 00:25 34.129599 -119.063116 299 6498ft 135kts
11-Jan-20 00:26 34.145560 -119.103096 300 6496ft 140kts
11-Jan-20 00:27 34.161851 -119.143261 300 6494ft 137kts
11-Jan-20 00:28 34.173285 -119.171459 300 6493ft 136kts
11-Jan-20 00:29 34.185297 -119.201040 300 6492ft 136kts
11-Jan-20 00:30 34.201981 -119.242318 300 6490ft 125kts
11-Jan-20 00:31 34.211902 -119.267279 299 6491ft 122kts
11-Jan-20 00:32 34.228008 -119.308041 299 6491ft 121kts
11-Jan-20 00:33 34.244163 -119.349209 299 6491ft 121kts
11-Jan-20 00:34 34.260820 -119.391965 299 6490ft 121kts
11-Jan-20 00:34 34.274978 -119.428560 299 6489ft 121kts
11-Jan-20 00:36 34.294868 -119.480368 299 6488ft 121kts
11-Jan-20 00:36 34.309296 -119.518246 299 6487ft 121kts
11-Jan-20 00:38 34.328349 -119.568654 299 6485ft 121kts
11-Jan-20 00:38 34.341927 -119.604852 298 6483ft 121kts
11-Jan-20 00:39 34.358689 -119.649878 298 6482ft 121kts
11-Jan-20 00:41 34.370782 -119.682649 298 6482ft 121kts
11-Jan-20 00:41 34.383124 -119.716283 298 6482ft 122kts
11-Jan-20 00:42 34.398224 -119.757694 297 6482ft 122kts
11-Jan-20 00:43 34.413456 -119.799385 301 6388ft 112kts
11-Jan-20 00:44 34.415525 -119.841769 283 5320ft 110kts
11-Jan-20 00:45 34.428891 -119.874343 20 4127ft 112kts
11-Jan-20 00:46 34.430612 -119.833172 99 2877ft 122kts
11-Jan-20 00:47 34.403669 -119.834836 305 1540ft 105kts
11-Jan-20 00:48 34.427171 -119.840463 342 16ft 10kts
11-Jan-20 00:49 34.429601 -119.842520 271 16ft 9kts
11-Jan-20 00:50 34.429784 -119.844002 321 16ft 0kts
11-Jan-20 00:51 34.429784 -119.844002 321 16ft 0kts

Navigation Log

Ident Type
Flight plan parsing failed, navigation log unavailable